MAS1426 WMKK-WMKC
Flight info
| Callsign | MAS1426 |
|---|---|
| Flight time | 0h 42m |
| Altitude | 25000 |
| Route | PIBOS1A PIBOS R208 MATSU Y345 GUGIT GUGIT1E |
| Aircraft | B738/M-SDE2E3FGHIRWXY/LB1 |
Departure
| Time | 2026-05-04 05:48 |
|---|---|
| Airport | Kuala Lumpur International Airport (WMKK) |
Arrival
| Time | 2026-05-04 06:31 |
|---|---|
| Airport | Sultan Ismail Petra Airport (WMKC) |
| Time | Latitude | Longitude | Altitude | Speed | Heading |
|---|---|---|---|---|---|
| 2026-05-04 05:26 | 2.75147 | 101.70253 | 99 ft | 0 kts | 147° |
| 2026-05-04 05:34 | 2.75164 | 101.70244 | 65 ft | 4 kts | 173° |
| 2026-05-04 05:34 | 2.75187 | 101.70249 | 65 ft | 4 kts | 222° |
| 2026-05-04 05:35 | 2.75194 | 101.70257 | 67 ft | 1 kts | 236° |
| 2026-05-04 05:38 | 2.75193 | 101.70255 | 72 ft | 1 kts | 236° |
| 2026-05-04 05:38 | 2.75188 | 101.70248 | 64 ft | 2 kts | 236° |
| 2026-05-04 05:38 | 2.75179 | 101.70234 | 70 ft | 3 kts | 236° |
| 2026-05-04 05:39 | 2.75166 | 101.70215 | 69 ft | 4 kts | 236° |
| 2026-05-04 05:39 | 2.75132 | 101.70164 | 70 ft | 5 kts | 237° |
| 2026-05-04 05:39 | 2.75111 | 101.70132 | 68 ft | 6 kts | 237° |
| 2026-05-04 05:40 | 2.75064 | 101.70060 | 72 ft | 7 kts | 236° |
| 2026-05-04 05:40 | 2.75040 | 101.70025 | 68 ft | 8 kts | 236° |
| 2026-05-04 05:40 | 2.75006 | 101.69984 | 72 ft | 8 kts | 212° |
| 2026-05-04 05:41 | 2.74954 | 101.69990 | 65 ft | 8 kts | 154° |
| 2026-05-04 05:41 | 2.74905 | 101.70021 | 67 ft | 9 kts | 147° |
| 2026-05-04 05:41 | 2.74854 | 101.70055 | 65 ft | 9 kts | 146° |
| 2026-05-04 05:41 | 2.74800 | 101.70091 | 68 ft | 9 kts | 146° |
| 2026-05-04 05:42 | 2.74744 | 101.70128 | 72 ft | 10 kts | 146° |
| 2026-05-04 05:42 | 2.74689 | 101.70165 | 66 ft | 7 kts | 146° |
| 2026-05-04 05:42 | 2.74666 | 101.70212 | 57 ft | 11 kts | 88° |
| 2026-05-04 05:42 | 2.74699 | 101.70277 | 62 ft | 10 kts | 56° |
| 2026-05-04 05:43 | 2.74739 | 101.70336 | 64 ft | 10 kts | 56° |
| 2026-05-04 05:43 | 2.74778 | 101.70393 | 68 ft | 10 kts | 56° |
| 2026-05-04 05:43 | 2.74816 | 101.70449 | 66 ft | 10 kts | 56° |
| 2026-05-04 05:45 | 2.75194 | 101.71006 | 70 ft | 16 kts | 56° |
| 2026-05-04 05:45 | 2.75256 | 101.71096 | 69 ft | 15 kts | 55° |
| 2026-05-04 05:47 | 2.75622 | 101.71635 | 70 ft | 10 kts | 56° |
| 2026-05-04 05:47 | 2.75668 | 101.71649 | 74 ft | 7 kts | 329° |
| 2026-05-04 05:47 | 2.75714 | 101.71619 | 69 ft | 13 kts | 327° |
| 2026-05-04 05:48 | 2.75909 | 101.71487 | 73 ft | 68 kts | 326° |
| 2026-05-04 05:48 | 2.76504 | 101.71087 | 62 ft | 135 kts | 327° |
| 2026-05-04 05:48 | 2.77434 | 101.70481 | 210 ft | 176 kts | 326° |
| 2026-05-04 05:48 | 2.78496 | 101.69836 | 945 ft | 178 kts | 327° |
| 2026-05-04 05:49 | 2.79492 | 101.69161 | 1868 ft | 168 kts | 323° |
| 2026-05-04 05:49 | 2.80487 | 101.68473 | 2473 ft | 187 kts | 324° |
| 2026-05-04 05:49 | 2.81750 | 101.67869 | 2726 ft | 219 kts | 353° |
| 2026-05-04 05:49 | 2.83294 | 101.68217 | 2990 ft | 243 kts | 30° |
| 2026-05-04 05:51 | 2.93906 | 101.76120 | 8197 ft | 285 kts | 35° |
| 2026-05-04 05:51 | 2.95527 | 101.77284 | 8975 ft | 289 kts | 35° |
| 2026-05-04 05:52 | 2.97169 | 101.78457 | 9778 ft | 292 kts | 36° |
| 2026-05-04 05:52 | 2.98836 | 101.79643 | 10412 ft | 300 kts | 36° |
| 2026-05-04 05:52 | 3.00602 | 101.80899 | 10684 ft | 321 kts | 36° |
| 2026-05-04 05:52 | 3.02445 | 101.82207 | 11273 ft | 328 kts | 36° |
| 2026-05-04 05:53 | 3.04302 | 101.83522 | 12095 ft | 328 kts | 36° |
| 2026-05-04 05:54 | 3.17920 | 101.93163 | 16856 ft | 356 kts | 36° |
| 2026-05-04 05:55 | 3.19955 | 101.94604 | 17503 ft | 360 kts | 37° |
| 2026-05-04 05:55 | 3.21314 | 101.95566 | 17945 ft | 362 kts | 37° |
| 2026-05-04 05:55 | 3.23377 | 101.97026 | 18531 ft | 366 kts | 37° |
| 2026-05-04 05:55 | 3.26175 | 101.99008 | 19230 ft | 371 kts | 37° |
| 2026-05-04 05:56 | 3.28291 | 102.00506 | 19794 ft | 374 kts | 37° |
| 2026-05-04 05:56 | 3.30424 | 102.02016 | 20344 ft | 377 kts | 37° |
| 2026-05-04 05:56 | 3.32587 | 102.03536 | 20873 ft | 381 kts | 34° |
| 2026-05-04 05:56 | 3.34967 | 102.04742 | 21384 ft | 388 kts | 22° |
| 2026-05-04 05:57 | 3.37573 | 102.05454 | 22015 ft | 389 kts | 11° |
| 2026-05-04 05:57 | 3.40271 | 102.05675 | 22738 ft | 388 kts | 4° |
| 2026-05-04 05:57 | 3.42971 | 102.05755 | 23408 ft | 388 kts | 2° |
| 2026-05-04 05:57 | 3.45674 | 102.05803 | 23928 ft | 389 kts | 2° |
| 2026-05-04 05:58 | 3.48375 | 102.05846 | 24500 ft | 388 kts | 2° |
| 2026-05-04 05:58 | 3.50162 | 102.05878 | 24783 ft | 389 kts | 2° |
| 2026-05-04 05:58 | 3.53768 | 102.05954 | 24877 ft | 384 kts | 2° |
| 2026-05-04 05:58 | 3.55527 | 102.05996 | 24904 ft | 382 kts | 3° |
| 2026-05-04 05:59 | 3.58195 | 102.06064 | 24913 ft | 385 kts | 3° |
| 2026-05-04 05:59 | 3.60889 | 102.06138 | 24921 ft | 389 kts | 3° |
| 2026-05-04 05:59 | 3.63604 | 102.06215 | 24922 ft | 391 kts | 3° |
| 2026-05-04 05:59 | 3.66331 | 102.06292 | 24918 ft | 393 kts | 3° |
| 2026-05-04 06:00 | 3.69064 | 102.06370 | 24911 ft | 393 kts | 3° |
| 2026-05-04 06:00 | 3.71792 | 102.06449 | 24910 ft | 392 kts | 3° |
| 2026-05-04 06:00 | 3.74510 | 102.06526 | 24900 ft | 390 kts | 3° |
| 2026-05-04 06:00 | 3.77216 | 102.06604 | 24900 ft | 388 kts | 3° |
| 2026-05-04 06:01 | 3.79914 | 102.06681 | 24906 ft | 386 kts | 3° |
| 2026-05-04 06:01 | 3.82599 | 102.06758 | 24899 ft | 385 kts | 3° |
| 2026-05-04 06:03 | 4.01259 | 102.07294 | 24914 ft | 386 kts | 3° |
| 2026-05-04 06:03 | 4.03939 | 102.07371 | 24910 ft | 387 kts | 3° |
| 2026-05-04 06:05 | 4.22835 | 102.07913 | 24908 ft | 388 kts | 3° |
| 2026-05-04 06:05 | 4.28233 | 102.08068 | 24899 ft | 387 kts | 3° |
| 2026-05-04 06:05 | 4.30925 | 102.08145 | 24904 ft | 387 kts | 3° |
| 2026-05-04 06:06 | 4.33617 | 102.08223 | 24908 ft | 386 kts | 3° |
| 2026-05-04 06:06 | 4.36301 | 102.08300 | 24899 ft | 386 kts | 3° |
| 2026-05-04 06:06 | 4.38988 | 102.08377 | 24903 ft | 386 kts | 3° |
| 2026-05-04 06:06 | 4.41667 | 102.08454 | 24904 ft | 385 kts | 3° |
| 2026-05-04 06:07 | 4.44349 | 102.08531 | 24907 ft | 385 kts | 3° |
| 2026-05-04 06:07 | 4.47030 | 102.08608 | 24908 ft | 385 kts | 3° |
| 2026-05-04 06:07 | 4.49710 | 102.08685 | 24903 ft | 386 kts | 3° |
| 2026-05-04 06:07 | 4.52392 | 102.08762 | 24903 ft | 385 kts | 3° |
| 2026-05-04 06:08 | 4.55069 | 102.08839 | 24902 ft | 384 kts | 3° |
| 2026-05-04 06:08 | 4.57727 | 102.08915 | 24892 ft | 380 kts | 3° |
| 2026-05-04 06:08 | 4.60363 | 102.08990 | 24901 ft | 379 kts | 3° |
| 2026-05-04 06:08 | 4.63012 | 102.09067 | 24908 ft | 382 kts | 3° |
| 2026-05-04 06:09 | 4.65674 | 102.09144 | 24783 ft | 384 kts | 3° |
| 2026-05-04 06:09 | 4.68342 | 102.09221 | 24515 ft | 381 kts | 3° |
| 2026-05-04 06:11 | 4.86650 | 102.09746 | 21762 ft | 368 kts | 3° |
| 2026-05-04 06:11 | 4.89198 | 102.09821 | 21395 ft | 366 kts | 3° |
| 2026-05-04 06:13 | 5.06628 | 102.10321 | 18771 ft | 354 kts | 3° |
| 2026-05-04 06:14 | 5.21262 | 102.10741 | 16467 ft | 345 kts | 3° |
| 2026-05-04 06:14 | 5.23647 | 102.10810 | 16116 ft | 342 kts | 3° |
| 2026-05-04 06:15 | 5.26020 | 102.10878 | 15738 ft | 340 kts | 3° |
| 2026-05-04 06:15 | 5.28376 | 102.10946 | 15436 ft | 336 kts | 3° |
| 2026-05-04 06:15 | 5.30694 | 102.11013 | 15236 ft | 329 kts | 3° |
| 2026-05-04 06:15 | 5.32946 | 102.11077 | 15107 ft | 320 kts | 3° |
| 2026-05-04 06:16 | 5.35163 | 102.11141 | 14796 ft | 318 kts | 3° |
| 2026-05-04 06:16 | 5.37377 | 102.11205 | 14441 ft | 318 kts | 3° |
| 2026-05-04 06:16 | 5.39583 | 102.11269 | 14135 ft | 317 kts | 3° |
| 2026-05-04 06:16 | 5.41780 | 102.11333 | 13836 ft | 315 kts | 3° |
| 2026-05-04 06:17 | 5.43961 | 102.11396 | 13515 ft | 313 kts | 3° |
| 2026-05-04 06:17 | 5.46132 | 102.11459 | 13178 ft | 311 kts | 3° |
| 2026-05-04 06:17 | 5.48294 | 102.11521 | 12846 ft | 310 kts | 3° |
| 2026-05-04 06:17 | 5.50441 | 102.11583 | 12512 ft | 308 kts | 3° |
| 2026-05-04 06:18 | 5.52581 | 102.11645 | 12199 ft | 306 kts | 3° |
| 2026-05-04 06:18 | 5.54708 | 102.11706 | 11888 ft | 305 kts | 3° |
| 2026-05-04 06:18 | 5.56824 | 102.11767 | 11566 ft | 304 kts | 3° |
| 2026-05-04 06:20 | 5.70983 | 102.12175 | 9826 ft | 283 kts | 3° |
| 2026-05-04 06:20 | 5.72949 | 102.12232 | 9519 ft | 282 kts | 3° |
| 2026-05-04 06:21 | 5.80716 | 102.12456 | 8407 ft | 277 kts | 2° |
| 2026-05-04 06:21 | 5.82610 | 102.12511 | 8148 ft | 276 kts | 3° |
| 2026-05-04 06:22 | 5.84520 | 102.12566 | 7859 ft | 272 kts | 3° |
| 2026-05-04 06:22 | 5.86405 | 102.12621 | 7440 ft | 271 kts | 3° |
| 2026-05-04 06:25 | 6.09134 | 102.13277 | 3403 ft | 187 kts | 1° |
| 2026-05-04 06:25 | 6.10406 | 102.13397 | 3090 ft | 187 kts | 9° |
| 2026-05-04 06:26 | 6.11688 | 102.13622 | 2811 ft | 185 kts | 10° |
| 2026-05-04 06:26 | 6.12937 | 102.13845 | 2659 ft | 178 kts | 10° |
| 2026-05-04 06:26 | 6.14135 | 102.14054 | 2507 ft | 171 kts | 10° |
| 2026-05-04 06:26 | 6.15297 | 102.14255 | 2356 ft | 168 kts | 10° |
| 2026-05-04 06:27 | 6.18424 | 102.16604 | 1766 ft | 161 kts | 85° |
| 2026-05-04 06:28 | 6.18440 | 102.17712 | 1658 ft | 152 kts | 91° |
| 2026-05-04 06:28 | 6.18392 | 102.18793 | 1644 ft | 158 kts | 90° |
| 2026-05-04 06:28 | 6.18264 | 102.19876 | 1593 ft | 154 kts | 96° |
| 2026-05-04 06:28 | 6.18094 | 102.20891 | 1503 ft | 140 kts | 96° |
| 2026-05-04 06:29 | 6.17932 | 102.21854 | 1335 ft | 140 kts | 96° |
| 2026-05-04 06:29 | 6.17771 | 102.22821 | 1128 ft | 136 kts | 94° |
| 2026-05-04 06:29 | 6.17598 | 102.23775 | 945 ft | 144 kts | 95° |
| 2026-05-04 06:29 | 6.17451 | 102.24770 | 757 ft | 143 kts | 95° |
| 2026-05-04 06:30 | 6.17290 | 102.25743 | 657 ft | 142 kts | 96° |
| 2026-05-04 06:30 | 6.17105 | 102.26711 | 494 ft | 142 kts | 96° |
| 2026-05-04 06:30 | 6.16963 | 102.27699 | 277 ft | 148 kts | 94° |
| 2026-05-04 06:30 | 6.16783 | 102.28707 | 33 ft | 137 kts | 96° |
| 2026-05-04 06:31 | 6.16649 | 102.29534 | 22 ft | 105 kts | 100° |
| 2026-05-04 06:31 | 6.16546 | 102.30130 | 20 ft | 55 kts | 99° |
| 2026-05-04 06:31 | 6.16559 | 102.30266 | 22 ft | 12 kts | 27° |
| 2026-05-04 06:31 | 6.16636 | 102.30287 | 21 ft | 10 kts | 10° |
| 2026-05-04 06:32 | 6.16678 | 102.30241 | 21 ft | 10 kts | 282° |
| 2026-05-04 06:33 | 6.16635 | 102.29820 | 20 ft | 14 kts | 195° |
| 2026-05-04 06:34 | 6.16612 | 102.29737 | 20 ft | 14 kts | 279° |
| 2026-05-04 06:34 | 6.16629 | 102.29631 | 20 ft | 16 kts | 279° |
| 2026-05-04 06:34 | 6.16649 | 102.29516 | 22 ft | 17 kts | 280° |
| 2026-05-04 06:34 | 6.16670 | 102.29391 | 21 ft | 19 kts | 280° |
| 2026-05-04 06:35 | 6.16685 | 102.29303 | 21 ft | 20 kts | 279° |
| 2026-05-04 06:36 | 6.16954 | 102.29030 | 21 ft | 4 kts | 347° |
| 2026-05-04 06:37 | 6.16972 | 102.29032 | 21 ft | 2 kts | 10° |
| 2026-05-04 06:37 | 6.16980 | 102.29034 | 21 ft | 0 kts | 9° |
| 2026-05-04 06:37 | 6.16981 | 102.29034 | 21 ft | 0 kts | 9° |
| 2026-05-04 06:38 | 6.16982 | 102.29034 | 21 ft | 0 kts | 9° |